Terminal Aerodrome Forecast
Issued by NWS

Home | Current Version | Previous Version | Text Only | Print | Product List | Glossary On
Versions: 1 2 3 4 5 6 7 8 9 10 11 12 13 14 15 16 17
000
FTUS46 KMFR 231749
TAFOTH
TAF
KOTH 231749Z 2318/2418 17012G19KT P6SM SCT050 OVC100
     FM232200 19015G25KT P6SM -RA FEW025 BKN040 OVC050 WS020/18045KT
     FM240700 18012G18KT 3SM RA BR SCT009 BKN020 OVC035
     FM241400 17009KT 6SM -RA BR FEW010 BKN025 OVC040=

USA.gov is the U.S. government's official web portal to all federal, state and local government web resources and services.